首页
METAR-TAF:

METAR-TAF

机场 :

復活節島, 智利

马塔维里国际机场

纬度: 27-09S, 经度: 109-25W, 海拔: 51米

当前天气观测

该预报发布于16分钟前的13:00 UTC
风速3节,风向东转东南
温度 20°C
湿度 94%
气压 1022 hPa
能见度10公里或以上
散云层高于2000英尺

METAR: SCIP 171300Z 11003KT 9999 SCT020 20/19 Q1022 NOSIG

时间: 08:16 (13:16 UTC)

预报

该预报发布于2小时和40分钟前的10:36 UTC
预报有效从17日的 12点(UTC)到 18日的 12点(UTC)
风速5节,风向东转东南
能见度10公里或以上
散云层高于2000英尺
短暂存在
从 17日的 12点(UTC)到 17日的 14点(UTC)
风速3节,风向多变
能見度: 8000
多云层高于2000英尺
小阵雨
成为
从 17日的 16点(UTC)到 17日的 18点(UTC)
风速5节,风向东转东北
少量云层高于2000英尺
散云层高于4000英尺
短暂存在
从 17日的 20点(UTC)到 17日的 23点(UTC)
风速3节,风向多变
能見度: 7000
散云层高于1500英尺
多云层高于3000英尺
小阵雨
成为
从 18日的 02点(UTC)到 18日的 04点(UTC)
风速5节,风向
散云层高于2000英尺
短暂存在
从 18日的 09点(UTC)到 18日的 12点(UTC)
风速10节,风向东转东南
能見度: 7000
多云层高于2000英尺
小阵雨

TAF: SCIP 171036Z 1712/1812 11005KT 9999 SCT020 TX27/1720Z TN18/1810Z TEMPO 1712/1714 VRB03KT 8000 -SHRA BKN020 BECMG 1716/1718 06005KT FEW020 SCT040 TEMPO 1720/1723 VRB03KT 7000 -SHRA SCT015 BKN030 BECMG 1802/1804 10005KT SCT020 TEMPO 1809/1812 11010KT 7000 -SHRA BKN020

超过4000个机场的气象观测和天气预报(METAR&TAF报告)。

可查询的气象台以黄色和红色小点在地图上表示。

将鼠标移到小点上方,可查看气象台名称。

然后点击查看天气观测和预报。

如需切换地图:点击带黑十字的绿色按钮放大地图;点击带横线的绿色按钮缩小地图;或者点击绿色箭头查看邻近地区的地图。


METAR-TAF: